createdAt,value
2023-03-28T00:01:51.782Z,83.45
2023-03-28T00:04:22.947Z,82.88
2023-03-28T00:06:52.034Z,82.69
2023-03-28T00:09:21.945Z,82.75
2023-03-28T00:11:49.729Z,82.33
2023-03-28T00:14:17.619Z,82.08
2023-03-28T00:16:46.800Z,81.97
2023-03-28T00:19:16.884Z,82.77
2023-03-28T00:21:47.232Z,82.57
2023-03-28T00:24:17.408Z,84.22
2023-03-28T00:26:49.458Z,83.53
2023-03-28T00:29:21.150Z,86.13
2023-03-28T00:31:50.501Z,87.02
2023-03-28T00:34:18.766Z,87.11
2023-03-28T00:36:46.672Z,86.70
2023-03-28T00:39:14.573Z,85.87
2023-03-28T00:41:43.932Z,86.28
2023-03-28T00:44:45.821Z,85.02
2023-03-28T00:47:20.553Z,86.49
2023-03-28T00:49:53.001Z,85.55
2023-03-28T00:52:25.131Z,85.19
2023-03-28T00:54:54.125Z,85.58
2023-03-28T00:57:23.574Z,85.37
2023-03-28T00:59:53.158Z,86.42
2023-03-28T01:02:21.639Z,85.55
2023-03-28T01:04:57.708Z,85.25
2023-03-28T01:07:26.396Z,85.38
2023-03-28T01:09:55.382Z,86.18
2023-03-28T01:12:24.173Z,85.46
2023-03-28T01:14:54.335Z,85.18
2023-03-28T01:17:22.801Z,85.98
2023-03-28T01:20:02.760Z,86.17
2023-03-28T01:23:07.652Z,86.74
2023-03-28T01:26:14.242Z,86.19
2023-03-28T01:29:12.446Z,85.89
2023-03-28T01:32:07.564Z,86.44
2023-03-28T01:35:29.879Z,86.87
2023-03-28T01:38:05.643Z,86.62
2023-03-28T01:40:39.839Z,86.38
2023-03-28T01:43:32.652Z,86.44
2023-03-28T01:46:07.239Z,86.61
2023-03-28T01:48:45.045Z,86.50
2023-03-28T01:51:22.922Z,86.32
2023-03-28T01:53:59.333Z,86.31
2023-03-28T01:56:32.741Z,86.40
2023-03-28T01:59:10.455Z,86.90
2023-03-28T02:02:07.011Z,86.88
2023-03-28T02:04:38.261Z,86.42
2023-03-28T02:07:08.912Z,86.79
2023-03-28T02:09:45.747Z,87.07
2023-03-28T02:12:41.426Z,87.18
2023-03-28T02:15:16.990Z,87.46
2023-03-28T02:18:23.682Z,87.09
2023-03-28T02:21:20.570Z,86.64
2023-03-28T02:24:06.379Z,87.21
2023-03-28T02:26:54.277Z,87.33
2023-03-28T02:29:31.721Z,87.18
2023-03-28T02:32:12.659Z,87.50
2023-03-28T02:34:41.727Z,87.73
2023-03-28T02:37:21.605Z,87.84
2023-03-28T02:40:03.504Z,87.96
2023-03-28T02:43:04.905Z,88.00
2023-03-28T02:45:59.591Z,88.35
2023-03-28T02:48:42.839Z,87.50
2023-03-28T02:51:20.221Z,87.03
2023-03-28T02:53:58.670Z,87.49
2023-03-28T02:56:38.407Z,88.11
2023-03-28T02:59:17.575Z,87.17
2023-03-28T03:01:45.984Z,87.95
2023-03-28T03:04:17.212Z,87.51
2023-03-28T03:06:48.361Z,87.35
2023-03-28T03:09:17.431Z,87.50
2023-03-28T03:11:45.533Z,87.92
2023-03-28T03:14:14.759Z,87.61
2023-03-28T03:16:43.207Z,87.01
2023-03-28T03:19:11.956Z,86.90
2023-03-28T03:21:39.748Z,86.66
2023-03-28T03:24:09.770Z,86.52
2023-03-28T03:26:40.192Z,86.59
2023-03-28T03:29:08.276Z,86.86
2023-03-28T03:31:38.186Z,86.99
2023-03-28T03:34:18.129Z,86.96
2023-03-28T03:36:52.992Z,87.02
2023-03-28T03:39:21.191Z,86.28
2023-03-28T03:41:49.451Z,85.72
2023-03-28T03:44:17.241Z,85.07
2023-03-28T03:46:46.517Z,85.16
2023-03-28T03:49:14.422Z,85.37
2023-03-28T03:51:43.191Z,85.83
2023-03-28T03:54:15.883Z,85.80
2023-03-28T03:56:43.818Z,85.65
2023-03-28T03:59:12.662Z,85.20
2023-03-28T04:01:43.956Z,84.82
2023-03-28T04:04:33.017Z,85.07
2023-03-28T04:07:26.905Z,85.23
2023-03-28T04:09:57.877Z,85.49
2023-03-28T04:12:28.302Z,85.58
2023-03-28T04:14:57.299Z,85.79
2023-03-28T04:17:37.967Z,85.91
2023-03-28T04:20:15.292Z,85.58
2023-03-28T04:23:01.815Z,85.70
2023-03-28T04:25:31.959Z,85.79
2023-03-28T04:28:27.894Z,85.98
2023-03-28T04:31:04.413Z,86.21
2023-03-28T04:33:53.699Z,86.57
2023-03-28T04:36:25.847Z,85.90
2023-03-28T04:39:03.530Z,85.81
2023-03-28T04:42:05.570Z,86.05
2023-03-28T04:44:51.732Z,85.66
2023-03-28T04:47:20.250Z,85.95
2023-03-28T04:49:48.748Z,85.69
2023-03-28T04:52:18.348Z,86.22
2023-03-28T04:54:48.467Z,86.27
2023-03-28T04:57:17.573Z,85.88
2023-03-28T04:59:48.592Z,85.66
2023-03-28T05:02:35.853Z,85.14
2023-03-28T05:05:07.596Z,85.64
2023-03-28T05:07:37.762Z,85.39
2023-03-28T05:10:08.356Z,85.48
2023-03-28T05:12:40.262Z,85.47
2023-03-28T05:15:09.178Z,85.23
2023-03-28T05:17:48.346Z,84.68
2023-03-28T05:20:22.340Z,84.97
2023-03-28T05:22:57.239Z,85.82
2023-03-28T05:25:26.106Z,85.78
2023-03-28T05:27:55.721Z,85.66
2023-03-28T05:30:24.524Z,85.86
2023-03-28T05:32:55.571Z,85.25
2023-03-28T05:35:23.463Z,85.31
2023-03-28T05:37:52.569Z,85.58
2023-03-28T05:40:22.178Z,84.21
2023-03-28T05:42:50.903Z,83.43
2023-03-28T05:45:21.104Z,84.20
2023-03-28T05:48:27.226Z,84.88
2023-03-28T05:50:55.131Z,85.13
2023-03-28T05:53:22.940Z,85.53
2023-03-28T05:55:52.127Z,85.21
2023-03-28T05:58:20.252Z,85.41
2023-03-28T06:00:48.220Z,84.82
2023-03-28T06:03:17.781Z,85.19
2023-03-28T06:05:47.481Z,85.60
2023-03-28T06:08:21.391Z,85.28
2023-03-28T06:10:49.541Z,84.56
2023-03-28T06:13:30.442Z,85.95
2023-03-28T06:15:58.345Z,85.15
2023-03-28T06:18:32.072Z,84.92
2023-03-28T06:21:00.470Z,84.25
2023-03-28T06:23:28.644Z,84.63
2023-03-28T06:25:57.562Z,84.24
2023-03-28T06:28:27.379Z,84.47
2023-03-28T06:31:19.690Z,84.86
2023-03-28T06:33:48.027Z,84.93
2023-03-28T06:36:19.609Z,85.13
2023-03-28T06:38:48.418Z,85.43
2023-03-28T06:41:16.485Z,85.90
2023-03-28T06:43:44.368Z,86.17
2023-03-28T06:46:32.300Z,86.30
2023-03-28T06:49:00.802Z,85.59
2023-03-28T06:51:48.574Z,85.78
2023-03-28T06:54:16.474Z,85.47
2023-03-28T06:56:44.362Z,84.92
2023-03-28T06:59:12.326Z,84.73
2023-03-28T07:01:41.729Z,85.39
2023-03-28T07:04:11.952Z,85.25
2023-03-28T07:06:42.551Z,85.29
2023-03-28T07:09:10.581Z,84.29
2023-03-28T07:11:42.799Z,84.04
2023-03-28T07:14:10.666Z,83.78
2023-03-28T07:16:38.444Z,83.84
2023-03-28T07:19:07.706Z,83.38
2023-03-28T07:21:37.972Z,82.87
2023-03-28T07:24:06.428Z,82.28
2023-03-28T07:26:46.125Z,82.20
2023-03-28T07:29:13.984Z,82.31
2023-03-28T07:31:42.627Z,82.21
2023-03-28T07:34:11.912Z,82.96
2023-03-28T07:36:39.869Z,82.43
2023-03-28T07:39:15.186Z,82.22
2023-03-28T07:41:43.223Z,81.34
2023-03-28T07:44:11.033Z,80.85
2023-03-28T07:46:39.831Z,80.92
2023-03-28T07:49:08.484Z,79.96
2023-03-28T07:51:38.239Z,80.58
2023-03-28T07:54:06.208Z,80.23
2023-03-28T07:56:34.372Z,80.52
2023-03-28T07:59:22.507Z,79.40
2023-03-28T08:01:53.606Z,79.14
2023-03-28T08:04:21.717Z,79.05
2023-03-28T08:07:07.965Z,78.49
2023-03-28T08:09:37.791Z,79.43
2023-03-28T08:12:16.382Z,78.47
2023-03-28T08:14:44.311Z,78.34
2023-03-28T08:17:12.416Z,78.36
2023-03-28T08:19:40.253Z,78.60
2023-03-28T08:22:16.656Z,77.41
2023-03-28T08:24:58.808Z,75.64
2023-03-28T08:27:26.702Z,75.87
2023-03-28T08:29:59.283Z,73.09
2023-03-28T08:32:28.237Z,71.73
2023-03-28T08:35:02.782Z,69.54
2023-03-28T08:37:33.702Z,68.98
2023-03-28T08:40:07.017Z,68.78
2023-03-28T08:43:06.536Z,70.21
2023-03-28T08:45:52.369Z,70.80
2023-03-28T08:48:25.592Z,69.19
2023-03-28T08:51:01.125Z,67.72
2023-03-28T08:53:39.084Z,67.76
2023-03-28T08:56:09.284Z,68.97
2023-03-28T08:58:47.581Z,63.81
2023-03-28T09:01:16.868Z,64.72
2023-03-28T09:03:45.007Z,63.12
2023-03-28T09:06:28.748Z,63.69
2023-03-28T09:09:30.150Z,64.18
2023-03-28T09:12:35.403Z,65.29
2023-03-28T09:15:43.478Z,65.94
2023-03-28T09:18:30.852Z,63.09
2023-03-28T09:21:06.537Z,58.97
2023-03-28T09:23:59.550Z,60.91
2023-03-28T09:26:53.261Z,62.95
2023-03-28T09:29:26.105Z,63.96
2023-03-28T09:31:59.200Z,62.46
2023-03-28T09:34:30.690Z,61.99
2023-03-28T09:37:15.361Z,58.72
2023-03-28T09:39:53.800Z,60.34
2023-03-28T09:42:35.812Z,58.73
2023-03-28T09:45:40.735Z,57.28
2023-03-28T09:48:19.133Z,57.99
2023-03-28T09:50:48.803Z,56.80
2023-03-28T09:53:23.199Z,57.07
2023-03-28T09:56:03.321Z,55.35
2023-03-28T09:58:51.246Z,53.73
2023-03-28T10:01:41.609Z,52.79
2023-03-28T10:04:38.152Z,52.39
2023-03-28T10:07:33.156Z,55.33
2023-03-28T10:10:22.134Z,56.42
2023-03-28T10:12:59.126Z,54.88
2023-03-28T10:15:35.649Z,52.86
2023-03-28T10:18:26.192Z,50.67
2023-03-28T10:21:16.289Z,49.05
2023-03-28T10:23:56.287Z,49.18
2023-03-28T10:26:26.649Z,51.29
2023-03-28T10:29:01.097Z,49.18
2023-03-28T10:31:34.215Z,47.09
2023-03-28T10:34:33.663Z,47.46
2023-03-28T10:37:27.362Z,47.65
2023-03-28T10:40:25.492Z,47.41
2023-03-28T10:43:14.235Z,47.73
2023-03-28T10:46:16.973Z,48.92
2023-03-28T10:49:06.629Z,49.90
2023-03-28T10:51:39.450Z,48.05
2023-03-28T10:54:20.786Z,46.69
2023-03-28T10:56:53.495Z,46.88
2023-03-28T10:59:50.689Z,48.72
2023-03-28T11:02:54.481Z,50.67
2023-03-28T11:05:41.203Z,50.53
2023-03-28T11:08:31.078Z,51.60
2023-03-28T11:11:12.777Z,49.77
2023-03-28T11:13:57.778Z,46.69
2023-03-28T11:16:40.744Z,45.79
2023-03-28T11:20:00.517Z,46.67
2023-03-28T11:22:47.607Z,47.47
2023-03-28T11:25:29.666Z,47.42
2023-03-28T11:28:08.049Z,46.90
2023-03-28T11:30:43.281Z,47.55
2023-03-28T11:33:28.870Z,45.74
2023-03-28T11:36:08.949Z,46.21
2023-03-28T11:38:41.752Z,45.39
2023-03-28T11:41:13.660Z,45.69
2023-03-28T11:44:04.131Z,43.06
2023-03-28T11:46:38.120Z,42.97
2023-03-28T11:49:17.736Z,42.16
2023-03-28T11:51:52.084Z,42.79
2023-03-28T11:54:25.742Z,45.37
2023-03-28T11:56:57.519Z,43.96
2023-03-28T11:59:41.743Z,44.59
2023-03-28T12:02:24.195Z,44.24
2023-03-28T12:04:58.910Z,44.84
2023-03-28T12:07:32.690Z,44.79
2023-03-28T12:10:21.637Z,45.92
2023-03-28T12:12:58.317Z,45.66
2023-03-28T12:15:34.981Z,47.31
2023-03-28T12:18:17.933Z,48.71
2023-03-28T12:20:52.248Z,44.69
2023-03-28T12:23:38.957Z,45.06
2023-03-28T12:26:37.069Z,45.84
2023-03-28T12:29:11.376Z,46.20
2023-03-28T12:31:46.436Z,47.44
2023-03-28T12:34:30.546Z,48.79
2023-03-28T12:37:25.067Z,48.75
2023-03-28T12:40:00.225Z,50.15
2023-03-28T12:42:32.846Z,48.12
2023-03-28T12:45:03.622Z,49.64
2023-03-28T12:47:36.506Z,49.50
2023-03-28T12:50:08.837Z,48.25
2023-03-28T12:52:41.944Z,48.49
2023-03-28T12:55:43.457Z,46.68
2023-03-28T12:58:22.829Z,46.89
2023-03-28T13:01:14.820Z,47.26
2023-03-28T13:04:12.416Z,46.85
2023-03-28T13:07:04.397Z,46.56
2023-03-28T13:09:52.493Z,47.70
2023-03-28T13:12:29.178Z,45.97
2023-03-28T13:15:03.893Z,44.69
2023-03-28T13:17:35.029Z,46.94
2023-03-28T13:20:09.666Z,45.48
2023-03-28T13:22:44.237Z,46.48
2023-03-28T13:25:25.927Z,46.87
2023-03-28T13:27:56.990Z,49.38
2023-03-28T13:30:28.742Z,48.34
2023-03-28T13:32:58.234Z,47.88
2023-03-28T13:35:47.583Z,47.97
2023-03-28T13:38:32.938Z,45.48
2023-03-28T13:41:02.468Z,46.66
2023-03-28T13:43:43.288Z,45.47
2023-03-28T13:46:16.193Z,47.10
2023-03-28T13:48:50.856Z,46.20
2023-03-28T13:51:23.520Z,46.04
2023-03-28T13:53:51.571Z,46.08
2023-03-28T13:56:24.533Z,44.55
2023-03-28T13:58:55.469Z,47.16
2023-03-28T14:01:27.224Z,46.96
2023-03-28T14:03:56.811Z,47.15
2023-03-28T14:06:26.415Z,47.40
2023-03-28T14:08:56.127Z,47.19
2023-03-28T14:11:30.601Z,46.23
2023-03-28T14:14:09.338Z,45.10
2023-03-28T14:16:39.958Z,46.24
2023-03-28T14:19:10.211Z,45.92
2023-03-28T14:21:37.978Z,45.17
2023-03-28T14:24:08.017Z,45.15
2023-03-28T14:26:38.023Z,46.46
2023-03-28T14:29:07.067Z,45.76
2023-03-28T14:31:38.340Z,47.20
2023-03-28T14:34:17.924Z,46.45
2023-03-28T14:37:01.180Z,46.46
2023-03-28T14:39:31.370Z,45.61
2023-03-28T14:42:03.880Z,44.71
2023-03-28T14:44:33.013Z,44.50
2023-03-28T14:47:01.284Z,45.29
2023-03-28T14:49:32.674Z,45.42
2023-03-28T14:52:03.521Z,44.73
2023-03-28T14:54:34.876Z,46.39
2023-03-28T14:57:04.984Z,46.40
2023-03-28T14:59:37.068Z,48.37
2023-03-28T15:02:06.943Z,46.68
2023-03-28T15:04:36.988Z,47.29
2023-03-28T15:07:04.961Z,47.05
2023-03-28T15:09:34.656Z,47.26
2023-03-28T15:12:07.937Z,48.03
2023-03-28T15:14:41.127Z,47.71
2023-03-28T15:17:17.042Z,47.64
2023-03-28T15:19:50.685Z,47.69
2023-03-28T15:22:27.802Z,48.52
2023-03-28T15:24:57.917Z,47.80
2023-03-28T15:27:29.904Z,48.27
2023-03-28T15:29:59.791Z,48.24
2023-03-28T15:32:29.042Z,44.05
2023-03-28T15:35:02.168Z,44.97
2023-03-28T15:37:40.991Z,46.66
2023-03-28T15:40:31.362Z,48.55
2023-03-28T15:43:00.439Z,44.70
2023-03-28T15:45:43.459Z,46.45
2023-03-28T15:48:17.468Z,46.98
2023-03-28T15:50:51.102Z,45.88
2023-03-28T15:53:20.118Z,47.04
2023-03-28T15:55:50.548Z,46.18
2023-03-28T15:58:21.647Z,45.91
2023-03-28T16:00:52.835Z,45.99
2023-03-28T16:03:32.814Z,46.16
2023-03-28T16:06:31.841Z,46.99
2023-03-28T16:09:19.250Z,46.41
2023-03-28T16:11:48.556Z,46.65
2023-03-28T16:14:37.330Z,48.25
2023-03-28T16:17:24.640Z,48.01
2023-03-28T16:20:03.877Z,45.99
2023-03-28T16:22:33.087Z,46.55
2023-03-28T16:25:01.343Z,46.94
2023-03-28T16:27:29.187Z,46.89
2023-03-28T16:29:57.287Z,46.16
2023-03-28T16:32:25.117Z,46.74
2023-03-28T16:34:53.012Z,48.67
2023-03-28T16:37:21.815Z,47.88
2023-03-28T16:39:51.721Z,46.90
2023-03-28T16:42:20.861Z,47.49
2023-03-28T16:44:48.849Z,47.16
2023-03-28T16:47:16.717Z,47.78
2023-03-28T16:49:44.525Z,48.09
2023-03-28T16:52:12.737Z,48.42
2023-03-28T16:54:40.759Z,48.31
2023-03-28T16:57:09.972Z,48.46
2023-03-28T16:59:37.853Z,48.03
2023-03-28T17:02:05.653Z,49.25
2023-03-28T17:04:33.624Z,49.35
2023-03-28T17:07:01.409Z,48.75
2023-03-28T17:09:29.449Z,49.28
2023-03-28T17:11:57.362Z,49.05
2023-03-28T17:14:27.003Z,48.85
2023-03-28T17:16:54.898Z,50.69
2023-03-28T17:19:24.053Z,49.73
2023-03-28T17:21:51.850Z,51.59
2023-03-28T17:24:21.648Z,50.67
2023-03-28T17:26:49.533Z,50.81
2023-03-28T17:29:17.442Z,51.25
2023-03-28T17:31:46.591Z,51.58
2023-03-28T17:34:15.317Z,51.91
2023-03-28T17:36:44.705Z,52.06
2023-03-28T17:39:13.502Z,51.18
2023-03-28T17:41:41.760Z,52.28
2023-03-28T17:44:09.951Z,52.33
2023-03-28T17:46:38.786Z,52.41
2023-03-28T17:49:08.906Z,52.70
2023-03-28T17:51:37.569Z,50.87
2023-03-28T17:54:08.267Z,50.72
2023-03-28T17:56:36.773Z,50.40
2023-03-28T17:59:05.386Z,50.59
2023-03-28T18:01:33.401Z,50.45
2023-03-28T18:04:01.690Z,50.84
2023-03-28T18:06:31.020Z,50.25
2023-03-28T18:08:58.880Z,50.08
2023-03-28T18:11:27.026Z,49.83
2023-03-28T18:13:57.069Z,50.06
2023-03-28T18:16:26.514Z,50.30
2023-03-28T18:18:55.319Z,51.06
2023-03-28T18:21:23.154Z,50.59
2023-03-28T18:23:52.383Z,50.66
2023-03-28T18:26:21.101Z,51.17
2023-03-28T18:28:49.178Z,52.27
2023-03-28T18:31:19.995Z,51.61
2023-03-28T18:33:47.926Z,52.13
2023-03-28T18:36:16.009Z,51.04
2023-03-28T18:38:45.125Z,51.16
2023-03-28T18:41:14.487Z,52.71
2023-03-28T18:43:43.393Z,51.00
2023-03-28T18:46:15.937Z,51.79
2023-03-28T18:48:44.619Z,51.68
2023-03-28T18:51:13.642Z,52.22
2023-03-28T18:53:41.751Z,51.99
2023-03-28T18:56:12.352Z,53.08
2023-03-28T18:58:41.760Z,52.91
2023-03-28T19:01:11.298Z,53.76
2023-03-28T19:03:41.617Z,52.86
2023-03-28T19:06:10.948Z,52.96
2023-03-28T19:08:38.856Z,52.51
2023-03-28T19:11:09.094Z,52.95
2023-03-28T19:13:36.968Z,53.72
2023-03-28T19:16:08.941Z,54.95
2023-03-28T19:18:39.128Z,55.55
2023-03-28T19:21:08.022Z,56.39
2023-03-28T19:23:36.867Z,56.81
2023-03-28T19:26:06.737Z,56.79
2023-03-28T19:28:35.032Z,57.87
2023-03-28T19:31:05.973Z,60.33
2023-03-28T19:33:37.042Z,62.02
2023-03-28T19:36:06.961Z,61.60
2023-03-28T19:38:36.984Z,60.18
2023-03-28T19:41:10.032Z,54.21
2023-03-28T19:43:39.101Z,56.78
2023-03-28T19:46:08.757Z,58.23
2023-03-28T19:48:38.185Z,55.47
2023-03-28T19:51:06.570Z,55.88
2023-03-28T19:53:34.447Z,54.26
2023-03-28T19:56:02.577Z,53.65
2023-03-28T19:58:31.241Z,53.93
2023-03-28T20:00:59.281Z,53.86
2023-03-28T20:03:27.350Z,53.64
2023-03-28T20:05:56.579Z,52.64
2023-03-28T20:08:24.477Z,51.97
2023-03-28T20:10:53.629Z,52.41
2023-03-28T20:13:21.609Z,52.64
2023-03-28T20:15:49.501Z,53.36
2023-03-28T20:18:20.481Z,51.57
2023-03-28T20:20:52.823Z,51.59
2023-03-28T20:23:24.043Z,50.96
2023-03-28T20:25:53.146Z,51.99
2023-03-28T20:28:21.411Z,51.53
2023-03-28T20:30:49.371Z,52.25
2023-03-28T20:33:17.237Z,51.85
2023-03-28T20:35:52.204Z,52.36
2023-03-28T20:38:20.187Z,52.02
2023-03-28T20:40:49.436Z,53.27
2023-03-28T20:43:20.182Z,52.34
2023-03-28T20:45:53.647Z,52.99
2023-03-28T20:48:25.997Z,53.08
2023-03-28T20:50:54.963Z,53.88
2023-03-28T20:53:22.904Z,53.00
2023-03-28T20:56:01.677Z,52.75
2023-03-28T20:58:31.595Z,54.24
2023-03-28T21:01:02.600Z,53.23
2023-03-28T21:03:46.638Z,54.83
2023-03-28T21:06:16.171Z,54.60
2023-03-28T21:08:46.990Z,54.98
2023-03-28T21:11:17.961Z,55.14
2023-03-28T21:13:46.097Z,53.94
2023-03-28T21:16:15.147Z,55.48
2023-03-28T21:18:43.151Z,54.79
2023-03-28T21:21:12.956Z,55.44
2023-03-28T21:23:42.232Z,55.60
2023-03-28T21:26:12.350Z,54.39
2023-03-28T21:28:41.891Z,54.26
2023-03-28T21:31:12.300Z,55.50
2023-03-28T21:33:41.583Z,54.20
2023-03-28T21:36:12.708Z,54.52
2023-03-28T21:38:41.153Z,53.74
2023-03-28T21:41:09.736Z,54.16
2023-03-28T21:43:38.587Z,54.75
2023-03-28T21:46:08.998Z,54.05
2023-03-28T21:48:37.534Z,53.98
2023-03-28T21:51:06.739Z,53.97
2023-03-28T21:53:36.345Z,53.60
2023-03-28T21:56:04.938Z,53.64
2023-03-28T21:58:33.487Z,54.77
2023-03-28T22:01:03.818Z,53.94
2023-03-28T22:03:36.459Z,53.42
2023-03-28T22:06:04.766Z,53.69
2023-03-28T22:08:32.600Z,54.76
2023-03-28T22:11:02.691Z,54.08
2023-03-28T22:13:30.538Z,53.57
2023-03-28T22:15:59.695Z,53.64
2023-03-28T22:18:30.716Z,54.38
2023-03-28T22:21:02.128Z,54.55
2023-03-28T22:23:31.594Z,54.30
2023-03-28T22:25:59.676Z,54.42
2023-03-28T22:28:27.695Z,53.50
2023-03-28T22:30:57.140Z,54.44
2023-03-28T22:33:25.831Z,53.63
2023-03-28T22:35:54.027Z,54.38
2023-03-28T22:38:23.317Z,53.44
2023-03-28T22:40:51.209Z,52.98
2023-03-28T22:43:19.141Z,54.26
2023-03-28T22:45:47.399Z,53.49
2023-03-28T22:48:15.264Z,54.26
2023-03-28T22:50:45.345Z,54.68
2023-03-28T22:53:14.495Z,54.32
2023-03-28T22:55:44.827Z,55.19
2023-03-28T22:58:13.635Z,53.46
2023-03-28T23:00:43.668Z,53.89
2023-03-28T23:03:12.125Z,55.44
2023-03-28T23:05:40.412Z,54.22
2023-03-28T23:08:08.347Z,53.76
2023-03-28T23:10:37.119Z,53.82
2023-03-28T23:13:06.798Z,55.05
2023-03-28T23:15:35.074Z,54.95
2023-03-28T23:18:03.757Z,56.87
2023-03-28T23:20:31.589Z,56.18
2023-03-28T23:22:59.504Z,56.20
2023-03-28T23:25:28.542Z,54.73
2023-03-28T23:27:56.465Z,55.40
2023-03-28T23:30:25.705Z,55.75
2023-03-28T23:32:53.477Z,56.99
2023-03-28T23:35:21.473Z,57.10
2023-03-28T23:37:52.962Z,56.24
2023-03-28T23:40:21.450Z,55.76
2023-03-28T23:42:49.668Z,57.62
2023-03-28T23:45:17.782Z,58.66
2023-03-28T23:47:46.991Z,57.49
2023-03-28T23:50:14.953Z,57.18
2023-03-28T23:52:42.901Z,58.80
2023-03-28T23:55:10.921Z,58.61
2023-03-28T23:57:38.729Z,59.55
